Des Lacs, North Dakota
Current Conditions -  °F | °C
As of 5:23 AM on Sunday 23 Nov 2014 (Local Time) from KMOT Reporting Station
Overcast Overcast  
Wind Chill: 29°   Ceiling: 2700
Heat Index: 38°   Visibility: 10mi
Dew Point: 29°   Wind: 16mph
Humidity: 70%   Direction: 250°WSW
Pressure: 29.34"   Gusts: NA
Location:  48.26°N, 101.56°W
Report Text: KMOT 231123Z AUTO 25014KT 10SM OVC027 03/M02 A2934 RMK AO2 T00331017
Loading
Personal Weather Stations






























Interactive Weather Map New forecast layout! Learn more

10-Day Weather Forecast

Advertisements
Track Severe Weather on mobile